createdAt,value
2022-10-03T00:01:15.682Z,13.07
2022-10-03T00:03:54.553Z,7.70
2022-10-03T00:06:33.643Z,15.57
2022-10-03T00:09:15.515Z,9.10
2022-10-03T00:11:58.754Z,9.83
2022-10-03T00:14:35.395Z,6.72
2022-10-03T00:17:11.304Z,11.05
2022-10-03T00:19:52.155Z,9.52
2022-10-03T00:22:32.807Z,8.10
2022-10-03T00:25:16.138Z,13.18
2022-10-03T00:27:49.015Z,10.10
2022-10-03T00:30:25.682Z,11.13
2022-10-03T00:33:16.293Z,11.77
2022-10-03T00:36:00.528Z,6.47
2022-10-03T00:38:53.296Z,5.07
2022-10-03T00:41:40.894Z,11.95
2022-10-03T00:44:39.283Z,8.32
2022-10-03T00:47:40.175Z,12.05
2022-10-03T00:50:20.595Z,11.95
2022-10-03T00:53:04.841Z,4.65
2022-10-03T00:55:49.486Z,10.73
2022-10-03T00:58:39.253Z,9.93
2022-10-03T01:01:24.520Z,10.25
2022-10-03T01:04:10.951Z,11.57
2022-10-03T01:06:47.602Z,4.70
2022-10-03T01:09:23.968Z,5.38
2022-10-03T01:12:04.226Z,12.20
2022-10-03T01:14:49.391Z,11.05
2022-10-03T01:17:32.698Z,8.80
2022-10-03T01:20:20.156Z,11.32
2022-10-03T01:23:23.648Z,7.47
2022-10-03T01:25:56.809Z,5.78
2022-10-03T01:29:04.899Z,10.20
2022-10-03T01:31:40.333Z,8.75
2022-10-03T01:34:17.399Z,15.65
2022-10-03T01:37:01.225Z,10.50
2022-10-03T01:39:37.683Z,10.02
2022-10-03T01:42:11.955Z,8.43
2022-10-03T01:44:55.739Z,5.22
2022-10-03T01:47:30.829Z,8.30
2022-10-03T01:50:04.210Z,13.63
2022-10-03T01:52:42.198Z,10.65
2022-10-03T01:55:21.700Z,21.65
2022-10-03T01:58:01.374Z,14.65
2022-10-03T02:00:35.397Z,10.55
2022-10-03T02:03:12.678Z,7.90
2022-10-03T02:05:49.944Z,8.13
2022-10-03T02:08:31.796Z,9.85
2022-10-03T02:11:03.485Z,5.00
2022-10-03T02:13:42.721Z,12.93
2022-10-03T02:16:21.483Z,10.23
2022-10-03T02:18:56.708Z,8.43
2022-10-03T02:21:27.801Z,12.50
2022-10-03T02:24:19.915Z,3.10
2022-10-03T02:27:20.939Z,5.88
2022-10-03T02:30:06.656Z,13.02
2022-10-03T02:33:09.070Z,16.75
2022-10-03T02:39:46.070Z,10.43
2022-10-03T02:42:47.514Z,11.95
2022-10-03T02:45:54.512Z,10.35
2022-10-03T02:49:10.277Z,15.85
2022-10-03T02:51:49.516Z,17.17
2022-10-03T02:54:57.732Z,19.85
2022-10-03T02:57:53.088Z,16.75
2022-10-03T03:00:25.084Z,16.77
2022-10-03T03:03:34.482Z,13.43
2022-10-03T03:06:47.841Z,12.32
2022-10-03T03:09:38.098Z,14.18
2022-10-03T03:12:49.075Z,15.40
2022-10-03T03:15:58.403Z,15.77
2022-10-03T03:18:35.891Z,22.85
2022-10-03T03:21:16.861Z,20.17
2022-10-03T03:24:17.515Z,14.77
2022-10-03T03:27:01.504Z,22.90
2022-10-03T03:29:40.886Z,29.52
2022-10-03T03:32:20.932Z,23.30
2022-10-03T03:34:59.462Z,16.10
2022-10-03T03:37:35.647Z,19.88
2022-10-03T03:40:34.816Z,13.77
2022-10-03T03:43:26.026Z,21.20
2022-10-03T03:46:06.823Z,14.05
2022-10-03T03:49:08.116Z,18.88
2022-10-03T03:51:44.264Z,22.48
2022-10-03T03:54:52.574Z,17.52
2022-10-03T03:57:48.290Z,17.08
2022-10-03T04:00:20.839Z,18.67
2022-10-03T04:06:08.634Z,16.52
2022-10-03T04:16:04.383Z,17.20
2022-10-03T04:19:00.891Z,22.08
2022-10-03T04:22:01.390Z,22.80
2022-10-03T04:25:01.409Z,22.60
2022-10-03T04:27:45.782Z,15.52
2022-10-03T04:30:18.354Z,19.55
2022-10-03T04:33:07.214Z,20.42
2022-10-03T04:36:19.484Z,19.95
2022-10-03T04:38:56.591Z,16.50
2022-10-03T04:44:42.061Z,19.25
2022-10-03T04:47:21.060Z,22.70
2022-10-03T04:49:56.019Z,18.95
2022-10-03T04:55:36.742Z,22.05
2022-10-03T05:01:17.049Z,20.42
2022-10-03T05:04:23.265Z,18.83
2022-10-03T05:07:02.576Z,16.80
2022-10-03T05:09:37.446Z,17.92
2022-10-03T05:12:16.212Z,20.17
2022-10-03T05:14:59.931Z,17.48
2022-10-03T05:17:43.200Z,15.55
2022-10-03T05:20:31.160Z,14.20
2022-10-03T05:23:08.190Z,12.98
2022-10-03T05:25:48.551Z,8.05
2022-10-03T05:28:28.767Z,18.80
2022-10-03T05:31:03.010Z,12.25
2022-10-03T05:33:41.696Z,12.15
2022-10-03T05:36:31.813Z,19.23
2022-10-03T05:39:27.253Z,16.67
2022-10-03T05:42:21.510Z,12.60
2022-10-03T05:45:30.220Z,17.27
2022-10-03T05:48:23.940Z,26.58
2022-10-03T05:51:14.278Z,12.77
2022-10-03T05:54:11.474Z,16.65
2022-10-03T05:57:24.386Z,16.77
2022-10-03T06:00:16.635Z,16.90
2022-10-03T06:03:06.503Z,22.13
2022-10-03T06:05:46.275Z,14.70
2022-10-03T06:08:57.741Z,16.77
2022-10-03T06:11:50.388Z,21.02
2022-10-03T06:14:54.629Z,10.93
2022-10-03T06:17:42.929Z,12.52
2022-10-03T06:20:47.266Z,16.92
2022-10-03T06:23:58.461Z,14.38
2022-10-03T06:27:03.211Z,11.43
2022-10-03T06:30:11.637Z,15.80
2022-10-03T06:33:38.818Z,16.08
2022-10-03T06:36:45.294Z,13.43
2022-10-03T06:39:52.572Z,12.90
2022-10-03T06:42:52.491Z,12.25
2022-10-03T06:46:01.493Z,19.40
2022-10-03T06:49:01.763Z,17.33
2022-10-03T06:51:52.622Z,16.25
2022-10-03T06:54:56.470Z,19.92
2022-10-03T06:57:48.030Z,10.32
2022-10-03T07:00:20.695Z,14.23
2022-10-03T07:06:07.564Z,16.17
2022-10-03T07:09:06.435Z,15.00
2022-10-03T07:12:14.053Z,15.05
2022-10-03T07:15:14.952Z,10.30
2022-10-03T07:18:01.117Z,18.83
2022-10-03T07:20:55.721Z,10.35
2022-10-03T07:24:02.652Z,13.02
2022-10-03T07:27:02.275Z,17.58
2022-10-03T07:30:06.369Z,11.27
2022-10-03T07:36:51.410Z,16.77
2022-10-03T08:13:29.681Z,10.18
2022-10-03T08:16:18.165Z,16.75
2022-10-03T08:19:11.738Z,10.07
2022-10-03T08:21:54.249Z,7.55
2022-10-03T08:25:00.593Z,8.90
2022-10-03T08:27:45.080Z,9.90
2022-10-03T08:30:29.805Z,9.23
2022-10-03T08:33:27.086Z,12.43
2022-10-03T08:36:15.114Z,10.75
2022-10-03T08:39:11.094Z,13.98
2022-10-03T08:42:23.314Z,6.43
2022-10-03T08:45:29.977Z,9.40
2022-10-03T08:48:33.011Z,11.23
2022-10-03T08:51:19.273Z,9.02
2022-10-03T08:54:09.126Z,3.53
2022-10-03T08:57:06.265Z,7.05
2022-10-03T09:00:00.912Z,10.23
2022-10-03T09:03:28.319Z,5.70
2022-10-03T09:06:24.824Z,9.82
2022-10-03T09:09:34.343Z,8.70
2022-10-03T09:12:25.447Z,8.85
2022-10-03T09:15:30.624Z,6.80
2022-10-03T09:18:27.376Z,13.05
2022-10-03T09:21:38.727Z,6.18
2022-10-03T09:24:51.443Z,9.70
2022-10-03T09:28:03.881Z,7.03
2022-10-03T09:30:51.716Z,9.13
2022-10-03T09:34:04.378Z,10.90
2022-10-03T09:37:26.177Z,12.27
2022-10-03T09:40:39.337Z,11.75
2022-10-03T09:43:46.538Z,7.30
2022-10-03T09:46:35.283Z,8.80
2022-10-03T09:49:46.823Z,10.48
2022-10-03T09:52:34.934Z,9.05
2022-10-03T09:55:18.105Z,9.05
2022-10-03T09:58:08.776Z,9.88
2022-10-03T10:01:00.243Z,10.48
2022-10-03T10:03:57.509Z,5.30
2022-10-03T10:06:42.808Z,5.70
2022-10-03T10:09:47.678Z,12.95
2022-10-03T10:12:39.898Z,5.03
2022-10-03T10:15:23.945Z,11.77
2022-10-03T10:18:25.589Z,10.00
2022-10-03T10:21:43.613Z,9.10
2022-10-03T10:24:40.155Z,12.35
2022-10-03T10:27:29.596Z,11.40
2022-10-03T10:30:12.858Z,6.80
2022-10-03T10:33:19.175Z,10.27
2022-10-03T10:36:17.384Z,5.43
2022-10-03T10:39:49.831Z,8.23
2022-10-03T10:42:55.948Z,7.20
2022-10-03T10:46:05.881Z,8.00
2022-10-03T10:49:21.542Z,12.18
2022-10-03T10:52:21.825Z,5.93
2022-10-03T10:55:19.283Z,7.70
2022-10-03T10:58:25.791Z,9.52
2022-10-03T11:01:17.528Z,9.15
2022-10-03T11:04:25.827Z,6.55
2022-10-03T11:07:32.875Z,7.35
2022-10-03T11:10:38.145Z,3.80
2022-10-03T11:13:41.836Z,7.03
2022-10-03T11:16:55.710Z,4.50
2022-10-03T11:19:54.174Z,6.13
2022-10-03T11:23:04.724Z,3.72
2022-10-03T11:26:11.982Z,5.63
2022-10-03T11:29:05.064Z,7.22
2022-10-03T11:32:09.567Z,3.92
2022-10-03T11:35:29.764Z,8.07
2022-10-03T11:38:08.909Z,5.97
2022-10-03T11:40:47.341Z,7.40
2022-10-03T11:43:47.274Z,8.18
2022-10-03T11:46:33.776Z,8.18
2022-10-03T11:49:10.557Z,9.27
2022-10-03T11:51:48.244Z,4.22
2022-10-03T11:54:31.629Z,4.93
2022-10-03T11:57:02.973Z,6.28
2022-10-03T12:00:00.359Z,4.75
2022-10-03T12:02:52.801Z,8.18
2022-10-03T12:05:28.973Z,4.78
2022-10-03T12:08:37.477Z,9.98
2022-10-03T12:11:11.407Z,4.03
2022-10-03T12:13:47.087Z,3.92
2022-10-03T12:16:27.791Z,6.03
2022-10-03T12:19:11.322Z,4.00
2022-10-03T12:21:53.377Z,5.57
2022-10-03T12:24:26.675Z,3.58
2022-10-03T12:27:01.750Z,5.90
2022-10-03T12:29:34.263Z,3.10
2022-10-03T12:34:58.181Z,10.32
2022-10-03T12:37:36.732Z,4.40
2022-10-03T12:40:13.875Z,3.42
2022-10-03T12:42:48.400Z,2.53
2022-10-03T12:45:26.850Z,5.10
2022-10-03T12:48:16.694Z,7.15
2022-10-03T12:50:55.173Z,6.22
2022-10-03T12:53:33.067Z,5.00
2022-10-03T12:56:08.375Z,5.80
2022-10-03T12:58:46.533Z,5.75
2022-10-03T13:01:26.563Z,5.88
2022-10-03T13:03:56.771Z,7.22
2022-10-03T13:07:02.906Z,3.63
2022-10-03T13:09:57.163Z,5.88
2022-10-03T13:12:39.206Z,2.97
2022-10-03T13:15:44.384Z,3.92
2022-10-03T13:18:45.356Z,6.38
2022-10-03T13:21:44.912Z,6.05
2022-10-03T13:24:16.753Z,1.80
2022-10-03T13:26:55.607Z,3.30
2022-10-03T13:29:30.938Z,4.63
2022-10-03T13:32:19.330Z,4.53
2022-10-03T13:35:38.594Z,6.03
2022-10-03T13:38:26.454Z,4.65
2022-10-03T13:41:07.093Z,2.67
2022-10-03T13:43:39.371Z,5.38
2022-10-03T13:48:44.548Z,7.43
2022-10-03T13:51:24.669Z,7.83
2022-10-03T13:54:01.161Z,3.50
2022-10-03T13:56:53.881Z,5.70
2022-10-03T13:59:37.635Z,6.75
2022-10-03T14:02:22.432Z,5.22
2022-10-03T14:05:05.221Z,6.20
2022-10-03T14:07:44.277Z,5.05
2022-10-03T14:10:41.217Z,4.93
2022-10-03T14:13:21.930Z,6.78
2022-10-03T14:15:56.224Z,6.35
2022-10-03T14:18:39.089Z,7.65
2022-10-03T14:21:28.047Z,3.83
2022-10-03T14:24:06.580Z,5.05
2022-10-03T14:26:42.542Z,4.78
2022-10-03T14:29:24.522Z,5.65
2022-10-03T14:31:58.949Z,6.88
2022-10-03T14:34:53.108Z,2.10
2022-10-03T14:37:28.470Z,10.07
2022-10-03T14:40:20.907Z,5.20
2022-10-03T14:43:06.212Z,6.97
2022-10-03T14:45:44.650Z,11.13
2022-10-03T14:48:17.677Z,4.70
2022-10-03T14:50:49.460Z,3.35
2022-10-03T14:53:21.344Z,4.80
2022-10-03T14:56:01.089Z,4.60
2022-10-03T14:58:32.631Z,6.20
2022-10-03T15:01:13.792Z,5.47
2022-10-03T15:03:46.369Z,2.92
2022-10-03T15:06:34.337Z,7.13
2022-10-03T15:09:06.087Z,4.13
2022-10-03T15:11:38.081Z,7.93
2022-10-03T15:14:10.094Z,7.47
2022-10-03T15:16:47.452Z,5.07
2022-10-03T15:19:19.045Z,4.50
2022-10-03T15:21:51.785Z,5.67
2022-10-03T15:24:25.237Z,6.93
2022-10-03T15:26:59.687Z,5.03
2022-10-03T15:29:29.243Z,6.60
2022-10-03T15:31:59.783Z,7.13
2022-10-03T15:34:33.608Z,5.85
2022-10-03T15:37:18.842Z,4.95
2022-10-03T15:39:48.810Z,6.50
2022-10-03T15:42:26.560Z,6.90
2022-10-03T15:44:57.920Z,7.47
2022-10-03T15:47:29.258Z,6.93
2022-10-03T15:50:02.340Z,3.25
2022-10-03T15:52:40.017Z,5.05
2022-10-03T15:55:16.579Z,5.47
2022-10-03T15:57:47.616Z,5.25
2022-10-03T16:00:24.701Z,3.63
2022-10-03T16:03:01.432Z,5.85
2022-10-03T16:05:30.793Z,3.03
2022-10-03T16:08:03.256Z,6.90
2022-10-03T16:13:22.644Z,8.13
2022-10-03T16:16:09.355Z,6.63
2022-10-03T16:18:56.050Z,8.10
2022-10-03T16:21:46.619Z,8.05
2022-10-03T16:24:27.559Z,6.63
2022-10-03T16:26:59.934Z,7.28
2022-10-03T16:29:32.564Z,6.95
2022-10-03T16:32:06.282Z,6.50
2022-10-03T16:34:39.486Z,6.97
2022-10-03T16:37:18.028Z,8.52
2022-10-03T16:39:54.506Z,7.55
2022-10-03T16:42:26.784Z,9.65
2022-10-03T16:44:58.013Z,4.07
2022-10-03T16:47:36.611Z,4.90
2022-10-03T16:50:26.244Z,5.63
2022-10-03T16:52:59.007Z,4.00
2022-10-03T16:55:32.158Z,7.22
2022-10-03T16:58:11.820Z,5.90
2022-10-03T17:00:46.054Z,23.52
2022-10-03T17:03:21.106Z,13.13
2022-10-03T17:05:54.599Z,5.82
2022-10-03T17:08:41.122Z,5.22
2022-10-03T17:11:18.955Z,9.20
2022-10-03T17:13:51.363Z,4.38
2022-10-03T17:16:28.311Z,9.75
2022-10-03T17:19:09.278Z,12.52
2022-10-03T17:21:42.698Z,7.97
2022-10-03T17:24:14.595Z,6.78
2022-10-03T17:26:45.886Z,9.43
2022-10-03T17:29:20.854Z,8.75
2022-10-03T17:31:56.863Z,8.05
2022-10-03T17:34:30.308Z,11.77
2022-10-03T17:37:30.189Z,9.15
2022-10-03T17:40:06.223Z,7.20
2022-10-03T17:42:43.048Z,9.13
2022-10-03T17:45:28.250Z,5.40
2022-10-03T17:47:59.536Z,12.15
2022-10-03T17:50:33.121Z,7.22
2022-10-03T17:53:03.571Z,12.00
2022-10-03T17:55:36.235Z,5.38
2022-10-03T17:58:06.618Z,4.85
2022-10-03T18:00:56.628Z,7.40
2022-10-03T18:03:29.929Z,7.93
2022-10-03T18:06:03.710Z,4.75
2022-10-03T18:08:39.604Z,6.47
2022-10-03T18:11:10.156Z,10.43
2022-10-03T18:13:42.337Z,10.00
2022-10-03T18:16:21.888Z,7.78
2022-10-03T18:19:10.681Z,9.43
2022-10-03T18:21:58.877Z,15.40
2022-10-03T18:24:50.211Z,17.92
2022-10-03T18:28:11.763Z,7.57
2022-10-03T18:30:47.330Z,18.00
2022-10-03T18:33:19.513Z,11.68
2022-10-03T18:35:49.918Z,8.50
2022-10-03T18:38:23.174Z,13.00
2022-10-03T18:40:56.119Z,10.70
2022-10-03T18:43:28.734Z,13.98
2022-10-03T18:48:35.257Z,8.20
2022-10-03T18:51:13.400Z,18.38
2022-10-03T18:53:47.681Z,13.85
2022-10-03T18:56:22.808Z,9.40
2022-10-03T18:59:08.507Z,9.52
2022-10-03T19:01:45.636Z,12.05
2022-10-03T19:04:20.839Z,9.98
2022-10-03T19:06:54.321Z,8.63
2022-10-03T19:09:28.160Z,6.85
2022-10-03T19:12:09.502Z,9.32
2022-10-03T19:14:49.062Z,7.88
2022-10-03T19:17:25.432Z,10.13
2022-10-03T19:19:59.054Z,7.03
2022-10-03T19:22:32.437Z,13.80
2022-10-03T19:25:05.004Z,6.47
2022-10-03T19:27:49.690Z,9.30
2022-10-03T19:30:21.659Z,25.08
2022-10-03T19:32:57.892Z,13.27
2022-10-03T19:35:52.828Z,26.00
2022-10-03T19:38:27.585Z,15.35
2022-10-03T19:41:01.210Z,20.92
2022-10-03T19:43:43.085Z,21.05
2022-10-03T19:46:23.851Z,21.80
2022-10-03T19:49:19.743Z,23.15
2022-10-03T19:51:49.307Z,24.50
2022-10-03T19:54:31.441Z,17.58
2022-10-03T19:57:02.530Z,15.20
2022-10-03T19:59:45.964Z,13.45
2022-10-03T20:02:14.218Z,10.35
2022-10-03T20:04:42.157Z,15.63
2022-10-03T20:07:18.756Z,11.65
2022-10-03T20:09:57.807Z,13.63
2022-10-03T20:12:29.913Z,15.32
2022-10-03T20:15:04.715Z,11.90
2022-10-03T20:17:34.222Z,10.02
2022-10-03T20:20:05.904Z,7.43
2022-10-03T20:22:36.735Z,5.90
2022-10-03T20:25:07.990Z,9.85
2022-10-03T20:27:42.478Z,9.80
2022-10-03T20:30:25.225Z,8.48
2022-10-03T20:32:56.671Z,8.00
2022-10-03T20:35:27.606Z,11.13
2022-10-03T20:38:02.928Z,12.98
2022-10-03T20:40:37.472Z,10.18
2022-10-03T20:43:28.335Z,5.65
2022-10-03T20:46:12.981Z,6.45
2022-10-03T20:48:48.289Z,5.57
2022-10-03T20:51:22.500Z,7.13
2022-10-03T20:53:54.868Z,4.63
2022-10-03T20:56:32.496Z,6.13
2022-10-03T20:59:02.675Z,5.38
2022-10-03T21:01:35.245Z,4.88
2022-10-03T21:06:43.941Z,7.65
2022-10-03T21:09:18.163Z,8.00
2022-10-03T21:11:54.346Z,8.20
2022-10-03T21:14:26.581Z,6.00
2022-10-03T21:16:57.109Z,7.43
2022-10-03T21:19:45.638Z,9.55
2022-10-03T21:22:17.899Z,9.55
2022-10-03T21:24:53.555Z,4.75
2022-10-03T21:27:23.411Z,7.68
2022-10-03T21:29:57.853Z,10.13
2022-10-03T21:32:40.621Z,7.13
2022-10-03T21:35:18.303Z,7.60
2022-10-03T21:37:52.415Z,5.85
2022-10-03T21:40:36.682Z,7.75
2022-10-03T21:43:13.925Z,8.93
2022-10-03T21:45:51.025Z,4.30
2022-10-03T21:48:33.103Z,5.55
2022-10-03T21:54:11.653Z,10.10
2022-10-03T21:56:58.529Z,5.60
2022-10-03T22:00:04.687Z,10.23
2022-10-03T22:06:40.510Z,9.30
2022-10-03T22:09:15.273Z,6.72
2022-10-03T22:11:50.081Z,5.60
2022-10-03T22:14:39.856Z,5.65
2022-10-03T22:17:16.232Z,8.25
2022-10-03T22:19:48.346Z,6.65
2022-10-03T22:22:29.419Z,6.68
2022-10-03T22:25:10.607Z,7.97
2022-10-03T22:27:48.309Z,9.18
2022-10-03T22:30:19.333Z,7.25
2022-10-03T22:33:00.442Z,7.00
2022-10-03T22:35:45.656Z,6.47
2022-10-03T22:38:16.485Z,8.23
2022-10-03T22:40:47.573Z,7.78
2022-10-03T22:43:20.569Z,7.65
2022-10-03T22:45:50.890Z,10.50
2022-10-03T22:48:24.102Z,7.72
2022-10-03T22:50:53.277Z,9.65
2022-10-03T22:53:28.672Z,10.23
2022-10-03T22:55:59.858Z,5.50
2022-10-03T22:58:30.781Z,7.72
2022-10-03T23:01:01.930Z,7.47
2022-10-03T23:03:33.573Z,5.33
2022-10-03T23:06:22.980Z,6.75
2022-10-03T23:09:03.559Z,4.78
2022-10-03T23:11:34.119Z,8.25
2022-10-03T23:14:07.598Z,6.97
2022-10-03T23:16:52.332Z,10.02
2022-10-03T23:19:33.720Z,6.30
2022-10-03T23:22:02.223Z,8.55
2022-10-03T23:24:35.238Z,7.72
2022-10-03T23:27:38.686Z,5.20
2022-10-03T23:30:56.562Z,6.47
2022-10-03T23:33:51.398Z,5.18
2022-10-03T23:36:23.361Z,6.00
2022-10-03T23:39:28.916Z,7.90
2022-10-03T23:42:01.095Z,7.05
2022-10-03T23:44:36.424Z,6.47
2022-10-03T23:47:11.847Z,7.10
2022-10-03T23:49:44.270Z,9.00
2022-10-03T23:52:19.376Z,8.63
2022-10-03T23:54:49.184Z,11.55
2022-10-03T23:57:21.648Z,6.53
2022-10-03T23:59:50.983Z,4.13
